sensor_id;sensor_type;location;lat;lon;timestamp;pressure;altitude;pressure_sealevel;temperature;humidity
54918;BME280;40818;50.562;7.454;2024-03-02T00:07:43;96359.25;;;4.41;100.00
54918;BME280;40818;50.562;7.454;2024-03-02T00:17:50;96353.25;;;4.55;100.00
54918;BME280;40818;50.562;7.454;2024-03-02T00:27:58;96357.16;;;4.61;100.00
54918;BME280;40818;50.562;7.454;2024-03-02T00:38:04;96349.44;;;4.61;100.00
54918;BME280;40818;50.562;7.454;2024-03-02T00:48:10;96343.19;;;4.65;100.00
54918;BME280;40818;50.562;7.454;2024-03-02T00:58:13;96326.69;;;4.55;100.00
54918;BME280;40818;50.562;7.454;2024-03-02T01:08:19;96316.88;;;4.34;100.00
54918;BME280;40818;50.562;7.454;2024-03-02T01:18:23;96317.75;;;4.20;100.00
54918;BME280;40818;50.562;7.454;2024-03-02T01:28:29;96325.16;;;4.10;100.00
54918;BME280;40818;50.562;7.454;2024-03-02T01:38:32;96321.72;;;3.97;100.00
54918;BME280;40818;50.562;7.454;2024-03-02T01:48:38;96320.97;;;3.95;100.00
54918;BME280;40818;50.562;7.454;2024-03-02T01:58:42;96303.19;;;3.92;100.00
54918;BME280;40818;50.562;7.454;2024-03-02T02:08:48;96302.84;;;3.84;100.00
54918;BME280;40818;50.562;7.454;2024-03-02T02:18:51;96284.88;;;3.84;100.00
54918;BME280;40818;50.562;7.454;2024-03-02T02:28:57;96278.94;;;3.69;100.00
54918;BME280;40818;50.562;7.454;2024-03-02T02:39:02;96280.69;;;3.54;100.00
54918;BME280;40818;50.562;7.454;2024-03-02T02:49:09;96276.28;;;3.56;100.00
54918;BME280;40818;50.562;7.454;2024-03-02T02:59:13;96251.00;;;3.50;100.00
54918;BME280;40818;50.562;7.454;2024-03-02T03:09:19;96255.84;;;3.54;100.00
54918;BME280;40818;50.562;7.454;2024-03-02T03:19:23;96265.66;;;3.62;100.00
54918;BME280;40818;50.562;7.454;2024-03-02T03:29:29;96274.28;;;3.61;100.00
54918;BME280;40818;50.562;7.454;2024-03-02T03:39:33;96286.00;;;3.65;100.00
54918;BME280;40818;50.562;7.454;2024-03-02T03:49:39;96288.00;;;3.60;100.00
54918;BME280;40818;50.562;7.454;2024-03-02T03:59:43;96287.75;;;3.50;100.00
54918;BME280;40818;50.562;7.454;2024-03-02T04:09:49;96273.72;;;3.70;100.00
54918;BME280;40818;50.562;7.454;2024-03-02T04:19:53;96278.94;;;3.69;100.00
54918;BME280;40818;50.562;7.454;2024-03-02T04:29:59;96280.66;;;3.68;100.00
54918;BME280;40818;50.562;7.454;2024-03-02T04:40:03;96284.72;;;3.58;100.00
54918;BME280;40818;50.562;7.454;2024-03-02T04:50:11;96296.47;;;3.62;100.00
54918;BME280;40818;50.562;7.454;2024-03-02T05:00:15;96319.72;;;3.73;100.00
54918;BME280;40818;50.562;7.454;2024-03-02T05:10:21;96326.53;;;3.74;100.00
54918;BME280;40818;50.562;7.454;2024-03-02T05:20:25;96336.69;;;3.76;100.00
54918;BME280;40818;50.562;7.454;2024-03-02T05:30:31;96347.13;;;3.58;100.00
54918;BME280;40818;50.562;7.454;2024-03-02T05:40:35;96339.16;;;3.63;100.00
54918;BME280;40818;50.562;7.454;2024-03-02T05:50:41;96338.16;;;3.66;100.00
54918;BME280;40818;50.562;7.454;2024-03-02T06:00:44;96343.38;;;3.64;100.00
54918;BME280;40818;50.562;7.454;2024-03-02T06:10:50;96358.50;;;3.40;100.00
54918;BME280;40818;50.562;7.454;2024-03-02T06:20:54;96369.03;;;3.50;100.00
54918;BME280;40818;50.562;7.454;2024-03-02T06:31:01;96366.84;;;3.72;100.00
54918;BME280;40818;50.562;7.454;2024-03-02T06:41:04;96396.00;;;3.86;100.00
54918;BME280;40818;50.562;7.454;2024-03-02T06:51:10;96392.13;;;4.07;100.00
54918;BME280;40818;50.562;7.454;2024-03-02T07:01:15;96397.28;;;4.07;100.00
54918;BME280;40818;50.562;7.454;2024-03-02T07:11:23;96400.28;;;4.14;100.00
54918;BME280;40818;50.562;7.454;2024-03-02T07:21:27;96394.69;;;4.22;100.00
54918;BME280;40818;50.562;7.454;2024-03-02T07:31:33;96405.41;;;4.70;100.00
54918;BME280;40818;50.562;7.454;2024-03-02T07:41:37;96399.13;;;5.42;100.00
54918;BME280;40818;50.562;7.454;2024-03-02T07:51:43;96407.66;;;5.55;100.00
54918;BME280;40818;50.562;7.454;2024-03-02T08:01:47;96425.44;;;6.11;100.00
54918;BME280;40818;50.562;7.454;2024-03-02T08:11:53;96439.59;;;6.56;100.00
54918;BME280;40818;50.562;7.454;2024-03-02T08:21:57;96447.41;;;6.91;100.00
54918;BME280;40818;50.562;7.454;2024-03-02T08:32:04;96437.19;;;7.14;100.00
54918;BME280;40818;50.562;7.454;2024-03-02T08:42:08;96427.06;;;7.24;100.00
54918;BME280;40818;50.562;7.454;2024-03-02T08:52:14;96424.72;;;7.32;100.00
54918;BME280;40818;50.562;7.454;2024-03-02T09:02:17;96433.50;;;7.76;99.42
54918;BME280;40818;50.562;7.454;2024-03-02T09:12:23;96437.78;;;8.00;98.74
54918;BME280;40818;50.562;7.454;2024-03-02T09:22:27;96454.81;;;8.02;97.03
54918;BME280;40818;50.562;7.454;2024-03-02T09:32:33;96437.47;;;8.50;95.66
54918;BME280;40818;50.562;7.454;2024-03-02T09:42:37;96426.44;;;8.92;96.16
54918;BME280;40818;50.562;7.454;2024-03-02T09:52:43;96425.16;;;9.30;92.14
54918;BME280;40818;50.562;7.454;2024-03-02T10:02:47;96414.47;;;9.23;91.87
54918;BME280;40818;50.562;7.454;2024-03-02T10:13:03;96428.25;;;9.45;90.78
54918;BME280;40818;50.562;7.454;2024-03-02T10:23:11;96423.19;;;10.06;88.12
54918;BME280;40818;50.562;7.454;2024-03-02T10:33:17;96416.31;;;10.77;83.55
54918;BME280;40818;50.562;7.454;2024-03-02T10:43:21;96404.50;;;11.14;83.75
54918;BME280;40818;50.562;7.454;2024-03-02T10:53:27;96414.28;;;10.71;80.23
54918;BME280;40818;50.562;7.454;2024-03-02T11:03:33;96404.63;;;10.11;82.83
54918;BME280;40818;50.562;7.454;2024-03-02T11:13:42;96411.63;;;10.51;84.24
54918;BME280;40818;50.562;7.454;2024-03-02T11:23:51;96395.78;;;10.14;84.09
54918;BME280;40818;50.562;7.454;2024-03-02T11:34:17;96395.09;;;9.90;84.82
54918;BME280;40818;50.562;7.454;2024-03-02T11:44:21;96386.97;;;9.74;91.36
54918;BME280;40818;50.562;7.454;2024-03-02T11:54:29;96376.94;;;10.43;87.30
54918;BME280;40818;50.562;7.454;2024-03-02T12:04:36;96375.31;;;10.61;85.12
54918;BME280;40818;50.562;7.454;2024-03-02T12:14:50;96351.31;;;10.79;82.84
54918;BME280;40818;50.562;7.454;2024-03-02T12:24:55;96360.78;;;10.39;82.77
54918;BME280;40818;50.562;7.454;2024-03-02T12:35:01;96346.97;;;9.98;83.58
54918;BME280;40818;50.562;7.454;2024-03-02T12:45:07;96339.69;;;9.82;87.77
54918;BME280;40818;50.562;7.454;2024-03-02T12:55:13;96334.66;;;10.31;83.27
54918;BME280;40818;50.562;7.454;2024-03-02T13:05:17;96327.09;;;10.08;80.18
54918;BME280;40818;50.562;7.454;2024-03-02T13:15:23;96325.88;;;10.72;77.76
54918;BME280;40818;50.562;7.454;2024-03-02T13:25:27;96306.06;;;10.71;74.26
54918;BME280;40818;50.562;7.454;2024-03-02T13:35:34;96301.16;;;10.68;77.56
54918;BME280;40818;50.562;7.454;2024-03-02T13:45:37;96287.06;;;11.00;73.91
54918;BME280;40818;50.562;7.454;2024-03-02T13:55:44;96286.78;;;11.13;70.76
54918;BME280;40818;50.562;7.454;2024-03-02T14:05:47;96272.59;;;10.98;70.18
54918;BME280;40818;50.562;7.454;2024-03-02T14:15:55;96271.66;;;10.79;70.74
54918;BME280;40818;50.562;7.454;2024-03-02T14:25:59;96264.00;;;10.87;70.65
54918;BME280;40818;50.562;7.454;2024-03-02T14:36:06;96264.97;;;10.76;71.84
54918;BME280;40818;50.562;7.454;2024-03-02T14:46:09;96251.03;;;10.58;74.27
54918;BME280;40818;50.562;7.454;2024-03-02T14:56:15;96239.50;;;10.31;74.22
54918;BME280;40818;50.562;7.454;2024-03-02T15:06:19;96234.84;;;10.15;72.49
54918;BME280;40818;50.562;7.454;2024-03-02T15:16:25;96240.00;;;9.96;73.51
54918;BME280;40818;50.562;7.454;2024-03-02T15:26:29;96232.63;;;9.91;75.47
54918;BME280;40818;50.562;7.454;2024-03-02T15:36:35;96211.91;;;9.91;77.79
54918;BME280;40818;50.562;7.454;2024-03-02T15:46:39;96205.06;;;9.90;74.39
54918;BME280;40818;50.562;7.454;2024-03-02T15:56:45;96206.28;;;9.86;73.32
54918;BME280;40818;50.562;7.454;2024-03-02T16:06:48;96198.94;;;9.81;72.82
54918;BME280;40818;50.562;7.454;2024-03-02T16:16:55;96205.06;;;9.80;73.16
54918;BME280;40818;50.562;7.454;2024-03-02T16:26:58;96190.59;;;9.78;75.68
54918;BME280;40818;50.562;7.454;2024-03-02T16:37:04;96193.59;;;9.73;70.84
54918;BME280;40818;50.562;7.454;2024-03-02T16:47:09;96186.59;;;9.64;72.19
54918;BME280;40818;50.562;7.454;2024-03-02T16:57:18;96196.78;;;9.55;74.11
54918;BME280;40818;50.562;7.454;2024-03-02T17:07:21;96199.66;;;9.52;73.39
54918;BME280;40818;50.562;7.454;2024-03-02T17:17:31;96211.31;;;9.37;76.00
54918;BME280;40818;50.562;7.454;2024-03-02T17:27:35;96216.34;;;9.29;76.18
54918;BME280;40818;50.562;7.454;2024-03-02T17:37:41;96223.28;;;9.07;78.40
54918;BME280;40818;50.562;7.454;2024-03-02T17:47:46;96222.84;;;9.23;79.39
54918;BME280;40818;50.562;7.454;2024-03-02T17:57:52;96228.66;;;9.15;81.75
54918;BME280;40818;50.562;7.454;2024-03-02T18:07:56;96227.97;;;9.13;83.31
54918;BME280;40818;50.562;7.454;2024-03-02T18:18:02;96239.41;;;9.11;83.30
54918;BME280;40818;50.562;7.454;2024-03-02T18:28:06;96243.13;;;8.97;84.85
54918;BME280;40818;50.562;7.454;2024-03-02T18:38:13;96227.94;;;8.82;86.77
54918;BME280;40818;50.562;7.454;2024-03-02T18:48:17;96230.75;;;8.79;86.85
54918;BME280;40818;50.562;7.454;2024-03-02T18:58:23;96232.00;;;8.85;86.79
54918;BME280;40818;50.562;7.454;2024-03-02T19:08:26;96235.31;;;8.66;89.07
54918;BME280;40818;50.562;7.454;2024-03-02T19:18:33;96224.13;;;8.65;88.77
54918;BME280;40818;50.562;7.454;2024-03-02T19:28:37;96218.50;;;8.28;91.11
54918;BME280;40818;50.562;7.454;2024-03-02T19:38:43;96209.38;;;8.12;92.42
54918;BME280;40818;50.562;7.454;2024-03-02T19:48:46;96204.25;;;8.01;93.38
54918;BME280;40818;50.562;7.454;2024-03-02T19:58:52;96186.09;;;7.80;95.23
54918;BME280;40818;50.562;7.454;2024-03-02T20:08:56;96178.47;;;7.78;95.47
54918;BME280;40818;50.562;7.454;2024-03-02T20:19:02;96160.66;;;7.64;97.20
54918;BME280;40818;50.562;7.454;2024-03-02T20:29:05;96155.25;;;7.67;98.16
54918;BME280;40818;50.562;7.454;2024-03-02T20:39:12;96159.97;;;7.62;98.61
54918;BME280;40818;50.562;7.454;2024-03-02T20:49:15;96145.41;;;7.61;98.94
54918;BME280;40818;50.562;7.454;2024-03-02T20:59:22;96144.94;;;7.44;100.00
54918;BME280;40818;50.562;7.454;2024-03-02T21:09:27;96147.75;;;7.52;100.00
54918;BME280;40818;50.562;7.454;2024-03-02T21:19:34;96132.72;;;7.58;100.00
54918;BME280;40818;50.562;7.454;2024-03-02T21:29:37;96138.94;;;7.66;100.00
54918;BME280;40818;50.562;7.454;2024-03-02T21:39:44;96144.69;;;7.70;100.00
54918;BME280;40818;50.562;7.454;2024-03-02T21:49:47;96162.13;;;7.78;100.00
54918;BME280;40818;50.562;7.454;2024-03-02T21:59:53;96178.72;;;7.75;100.00
54918;BME280;40818;50.562;7.454;2024-03-02T22:09:57;96190.34;;;7.69;100.00
54918;BME280;40818;50.562;7.454;2024-03-02T22:20:04;96212.41;;;7.74;100.00
54918;BME280;40818;50.562;7.454;2024-03-02T22:30:08;96214.66;;;7.78;100.00
54918;BME280;40818;50.562;7.454;2024-03-02T22:40:15;96224.25;;;7.88;100.00
54918;BME280;40818;50.562;7.454;2024-03-02T22:50:18;96216.75;;;7.84;100.00
54918;BME280;40818;50.562;7.454;2024-03-02T23:00:26;96197.97;;;7.60;100.00
54918;BME280;40818;50.562;7.454;2024-03-02T23:10:47;96180.88;;;7.47;100.00
54918;BME280;40818;50.562;7.454;2024-03-02T23:20:53;96139.56;;;7.47;100.00
54918;BME280;40818;50.562;7.454;2024-03-02T23:30:56;96144.16;;;7.32;100.00
54918;BME280;40818;50.562;7.454;2024-03-02T23:41:03;96140.41;;;7.25;100.00
54918;BME280;40818;50.562;7.454;2024-03-02T23:51:11;96144.63;;;7.26;100.00
